sensor_id;sensor_type;location;lat;lon;timestamp;P1;durP1;ratioP1;P2;durP2;ratioP2
56999;SDS011;42891;50.006;21.964;2024-02-26T00:03:27;23.23;;;15.55;;
56999;SDS011;42891;50.006;21.964;2024-02-26T00:07:27;19.27;;;13.93;;
56999;SDS011;42891;50.006;21.964;2024-02-26T00:11:27;19.57;;;14.23;;
56999;SDS011;42891;50.006;21.964;2024-02-26T00:15:28;21.00;;;16.13;;
56999;SDS011;42891;50.006;21.964;2024-02-26T00:19:28;25.93;;;18.13;;
56999;SDS011;42891;50.006;21.964;2024-02-26T00:23:28;22.97;;;17.53;;
56999;SDS011;42891;50.006;21.964;2024-02-26T00:27:28;20.42;;;14.35;;
56999;SDS011;42891;50.006;21.964;2024-02-26T00:31:29;20.67;;;14.77;;
56999;SDS011;42891;50.006;21.964;2024-02-26T00:35:29;19.65;;;14.25;;
56999;SDS011;42891;50.006;21.964;2024-02-26T00:39:30;20.63;;;12.95;;
56999;SDS011;42891;50.006;21.964;2024-02-26T00:43:30;17.48;;;13.18;;
56999;SDS011;42891;50.006;21.964;2024-02-26T00:47:30;19.17;;;13.80;;
56999;SDS011;42891;50.006;21.964;2024-02-26T00:51:31;20.50;;;14.03;;
56999;SDS011;42891;50.006;21.964;2024-02-26T00:55:31;22.13;;;15.50;;
56999;SDS011;42891;50.006;21.964;2024-02-26T00:59:31;20.65;;;15.55;;
56999;SDS011;42891;50.006;21.964;2024-02-26T01:03:32;21.87;;;15.00;;
56999;SDS011;42891;50.006;21.964;2024-02-26T01:07:32;20.05;;;15.27;;
56999;SDS011;42891;50.006;21.964;2024-02-26T01:11:35;21.17;;;16.25;;
56999;SDS011;42891;50.006;21.964;2024-02-26T01:15:36;20.05;;;15.45;;
56999;SDS011;42891;50.006;21.964;2024-02-26T01:19:36;20.83;;;13.53;;
56999;SDS011;42891;50.006;21.964;2024-02-26T01:23:36;20.27;;;14.80;;
56999;SDS011;42891;50.006;21.964;2024-02-26T01:27:36;19.73;;;14.57;;
56999;SDS011;42891;50.006;21.964;2024-02-26T01:31:37;19.83;;;14.52;;
56999;SDS011;42891;50.006;21.964;2024-02-26T01:35:37;19.20;;;13.27;;
56999;SDS011;42891;50.006;21.964;2024-02-26T01:39:37;17.02;;;13.65;;
56999;SDS011;42891;50.006;21.964;2024-02-26T01:43:38;18.60;;;13.20;;
56999;SDS011;42891;50.006;21.964;2024-02-26T01:47:38;16.27;;;12.90;;
56999;SDS011;42891;50.006;21.964;2024-02-26T01:51:38;19.47;;;13.10;;
56999;SDS011;42891;50.006;21.964;2024-02-26T01:55:40;18.05;;;12.80;;
56999;SDS011;42891;50.006;21.964;2024-02-26T01:59:42;17.08;;;12.27;;
56999;SDS011;42891;50.006;21.964;2024-02-26T02:03:42;16.60;;;12.25;;
56999;SDS011;42891;50.006;21.964;2024-02-26T02:07:43;16.33;;;12.02;;
56999;SDS011;42891;50.006;21.964;2024-02-26T02:11:44;16.70;;;11.60;;
56999;SDS011;42891;50.006;21.964;2024-02-26T02:15:44;13.77;;;10.70;;
56999;SDS011;42891;50.006;21.964;2024-02-26T02:19:45;14.53;;;10.47;;
56999;SDS011;42891;50.006;21.964;2024-02-26T02:23:45;13.60;;;10.87;;
56999;SDS011;42891;50.006;21.964;2024-02-26T02:27:46;13.07;;;10.23;;
56999;SDS011;42891;50.006;21.964;2024-02-26T02:31:46;14.52;;;10.10;;
56999;SDS011;42891;50.006;21.964;2024-02-26T02:35:47;13.57;;;9.40;;
56999;SDS011;42891;50.006;21.964;2024-02-26T02:39:48;12.50;;;9.65;;
56999;SDS011;42891;50.006;21.964;2024-02-26T02:43:48;12.15;;;9.00;;
56999;SDS011;42891;50.006;21.964;2024-02-26T02:47:49;12.15;;;9.25;;
56999;SDS011;42891;50.006;21.964;2024-02-26T02:51:49;10.97;;;8.37;;
56999;SDS011;42891;50.006;21.964;2024-02-26T02:55:49;12.25;;;8.48;;
56999;SDS011;42891;50.006;21.964;2024-02-26T02:59:50;10.07;;;8.05;;
56999;SDS011;42891;50.006;21.964;2024-02-26T03:03:50;10.43;;;7.57;;
56999;SDS011;42891;50.006;21.964;2024-02-26T03:07:51;9.10;;;7.15;;
56999;SDS011;42891;50.006;21.964;2024-02-26T03:11:52;8.95;;;7.80;;
56999;SDS011;42891;50.006;21.964;2024-02-26T03:15:52;9.43;;;8.37;;
56999;SDS011;42891;50.006;21.964;2024-02-26T03:19:53;9.40;;;7.73;;
56999;SDS011;42891;50.006;21.964;2024-02-26T03:23:54;9.57;;;7.75;;
56999;SDS011;42891;50.006;21.964;2024-02-26T03:27:54;11.48;;;7.07;;
56999;SDS011;42891;50.006;21.964;2024-02-26T03:31:55;9.65;;;7.60;;
56999;SDS011;42891;50.006;21.964;2024-02-26T03:35:55;8.27;;;6.70;;
56999;SDS011;42891;50.006;21.964;2024-02-26T03:39:55;10.10;;;7.80;;
56999;SDS011;42891;50.006;21.964;2024-02-26T03:43:57;9.35;;;7.40;;
56999;SDS011;42891;50.006;21.964;2024-02-26T03:47:57;8.73;;;6.90;;
56999;SDS011;42891;50.006;21.964;2024-02-26T03:51:57;8.63;;;6.95;;
56999;SDS011;42891;50.006;21.964;2024-02-26T03:55:58;7.88;;;6.45;;
56999;SDS011;42891;50.006;21.964;2024-02-26T04:00:02;8.57;;;6.75;;
56999;SDS011;42891;50.006;21.964;2024-02-26T04:04:03;8.50;;;6.55;;
56999;SDS011;42891;50.006;21.964;2024-02-26T04:08:04;8.10;;;6.50;;
56999;SDS011;42891;50.006;21.964;2024-02-26T04:12:07;8.50;;;6.82;;
56999;SDS011;42891;50.006;21.964;2024-02-26T04:16:07;14.95;;;9.60;;
56999;SDS011;42891;50.006;21.964;2024-02-26T04:20:08;11.52;;;8.23;;
56999;SDS011;42891;50.006;21.964;2024-02-26T04:24:13;8.07;;;6.20;;
56999;SDS011;42891;50.006;21.964;2024-02-26T04:28:13;8.50;;;5.83;;
56999;SDS011;42891;50.006;21.964;2024-02-26T04:32:13;9.73;;;6.78;;
56999;SDS011;42891;50.006;21.964;2024-02-26T04:36:14;9.80;;;6.87;;
56999;SDS011;42891;50.006;21.964;2024-02-26T04:40:17;11.68;;;7.78;;
56999;SDS011;42891;50.006;21.964;2024-02-26T04:44:18;9.03;;;7.03;;
56999;SDS011;42891;50.006;21.964;2024-02-26T04:48:18;8.37;;;5.80;;
56999;SDS011;42891;50.006;21.964;2024-02-26T04:52:18;7.60;;;6.63;;
56999;SDS011;42891;50.006;21.964;2024-02-26T04:56:20;7.28;;;5.95;;
56999;SDS011;42891;50.006;21.964;2024-02-26T05:00:21;7.70;;;6.50;;
56999;SDS011;42891;50.006;21.964;2024-02-26T05:04:22;7.37;;;6.00;;
56999;SDS011;42891;50.006;21.964;2024-02-26T05:08:22;8.30;;;6.15;;
56999;SDS011;42891;50.006;21.964;2024-02-26T05:12:22;9.13;;;6.47;;
56999;SDS011;42891;50.006;21.964;2024-02-26T05:16:23;7.50;;;6.22;;
56999;SDS011;42891;50.006;21.964;2024-02-26T05:20:24;7.28;;;5.97;;
56999;SDS011;42891;50.006;21.964;2024-02-26T05:24:25;6.63;;;5.78;;
56999;SDS011;42891;50.006;21.964;2024-02-26T05:28:25;5.87;;;5.07;;
56999;SDS011;42891;50.006;21.964;2024-02-26T05:32:25;5.73;;;5.13;;
56999;SDS011;42891;50.006;21.964;2024-02-26T05:36:26;5.60;;;4.68;;
56999;SDS011;42891;50.006;21.964;2024-02-26T05:40:28;5.50;;;4.90;;
56999;SDS011;42891;50.006;21.964;2024-02-26T05:44:29;5.18;;;4.63;;
56999;SDS011;42891;50.006;21.964;2024-02-26T05:48:30;6.95;;;4.53;;
56999;SDS011;42891;50.006;21.964;2024-02-26T05:52:32;5.20;;;4.35;;
56999;SDS011;42891;50.006;21.964;2024-02-26T05:56:32;5.82;;;4.40;;
56999;SDS011;42891;50.006;21.964;2024-02-26T06:00:33;8.03;;;4.57;;
56999;SDS011;42891;50.006;21.964;2024-02-26T06:04:33;4.70;;;4.20;;
56999;SDS011;42891;50.006;21.964;2024-02-26T06:08:33;5.30;;;4.80;;
56999;SDS011;42891;50.006;21.964;2024-02-26T06:12:36;5.80;;;4.80;;
56999;SDS011;42891;50.006;21.964;2024-02-26T06:16:37;6.82;;;4.38;;
56999;SDS011;42891;50.006;21.964;2024-02-26T06:20:37;6.10;;;4.80;;
56999;SDS011;42891;50.006;21.964;2024-02-26T06:24:37;5.63;;;4.93;;
56999;SDS011;42891;50.006;21.964;2024-02-26T06:28:38;8.57;;;5.20;;
56999;SDS011;42891;50.006;21.964;2024-02-26T06:32:40;7.55;;;5.05;;
56999;SDS011;42891;50.006;21.964;2024-02-26T06:36:40;6.20;;;5.30;;
56999;SDS011;42891;50.006;21.964;2024-02-26T06:40:41;6.20;;;5.20;;
56999;SDS011;42891;50.006;21.964;2024-02-26T06:44:41;6.95;;;5.68;;
56999;SDS011;42891;50.006;21.964;2024-02-26T06:48:41;8.60;;;6.53;;
56999;SDS011;42891;50.006;21.964;2024-02-26T06:52:43;6.40;;;5.80;;
56999;SDS011;42891;50.006;21.964;2024-02-26T06:56:45;8.63;;;6.22;;
56999;SDS011;42891;50.006;21.964;2024-02-26T07:00:46;8.20;;;5.95;;
56999;SDS011;42891;50.006;21.964;2024-02-26T07:04:46;7.40;;;6.30;;
56999;SDS011;42891;50.006;21.964;2024-02-26T07:08:46;7.22;;;6.03;;
56999;SDS011;42891;50.006;21.964;2024-02-26T07:12:47;7.53;;;5.90;;
56999;SDS011;42891;50.006;21.964;2024-02-26T07:16:47;8.87;;;6.43;;
56999;SDS011;42891;50.006;21.964;2024-02-26T07:20:47;9.73;;;7.20;;
56999;SDS011;42891;50.006;21.964;2024-02-26T07:24:48;13.25;;;7.88;;
56999;SDS011;42891;50.006;21.964;2024-02-26T07:28:48;12.67;;;8.37;;
56999;SDS011;42891;50.006;21.964;2024-02-26T07:32:48;10.97;;;8.13;;
56999;SDS011;42891;50.006;21.964;2024-02-26T07:36:49;11.67;;;8.77;;
56999;SDS011;42891;50.006;21.964;2024-02-26T07:40:49;10.20;;;8.45;;
56999;SDS011;42891;50.006;21.964;2024-02-26T07:44:49;13.80;;;9.27;;
56999;SDS011;42891;50.006;21.964;2024-02-26T07:48:50;12.43;;;9.07;;
56999;SDS011;42891;50.006;21.964;2024-02-26T07:52:51;14.38;;;8.95;;
56999;SDS011;42891;50.006;21.964;2024-02-26T07:56:52;16.05;;;9.35;;
56999;SDS011;42891;50.006;21.964;2024-02-26T08:00:53;13.40;;;9.03;;
56999;SDS011;42891;50.006;21.964;2024-02-26T08:04:53;15.00;;;10.63;;
56999;SDS011;42891;50.006;21.964;2024-02-26T08:08:53;12.70;;;10.13;;
56999;SDS011;42891;50.006;21.964;2024-02-26T08:12:54;12.40;;;8.73;;
56999;SDS011;42891;50.006;21.964;2024-02-26T08:16:54;16.27;;;9.40;;
56999;SDS011;42891;50.006;21.964;2024-02-26T08:20:54;12.52;;;9.23;;
56999;SDS011;42891;50.006;21.964;2024-02-26T08:24:55;13.03;;;9.07;;
56999;SDS011;42891;50.006;21.964;2024-02-26T08:28:55;12.57;;;9.10;;
56999;SDS011;42891;50.006;21.964;2024-02-26T08:32:55;13.68;;;8.95;;
56999;SDS011;42891;50.006;21.964;2024-02-26T08:36:56;11.60;;;9.07;;
56999;SDS011;42891;50.006;21.964;2024-02-26T08:40:56;10.60;;;8.43;;
56999;SDS011;42891;50.006;21.964;2024-02-26T08:44:56;12.80;;;8.43;;
56999;SDS011;42891;50.006;21.964;2024-02-26T08:49:00;11.57;;;8.98;;
56999;SDS011;42891;50.006;21.964;2024-02-26T08:53:00;14.60;;;8.90;;
56999;SDS011;42891;50.006;21.964;2024-02-26T08:57:01;11.68;;;8.80;;
56999;SDS011;42891;50.006;21.964;2024-02-26T09:01:02;14.40;;;8.35;;
56999;SDS011;42891;50.006;21.964;2024-02-26T09:05:03;13.32;;;8.55;;
56999;SDS011;42891;50.006;21.964;2024-02-26T09:09:03;11.38;;;8.25;;
56999;SDS011;42891;50.006;21.964;2024-02-26T09:13:03;10.50;;;8.03;;
56999;SDS011;42891;50.006;21.964;2024-02-26T09:17:04;12.23;;;8.43;;
56999;SDS011;42891;50.006;21.964;2024-02-26T09:21:06;10.68;;;8.18;;
56999;SDS011;42891;50.006;21.964;2024-02-26T09:25:06;11.93;;;8.02;;
56999;SDS011;42891;50.006;21.964;2024-02-26T09:29:07;11.85;;;7.85;;
56999;SDS011;42891;50.006;21.964;2024-02-26T09:33:08;13.57;;;8.82;;
56999;SDS011;42891;50.006;21.964;2024-02-26T09:37:08;14.53;;;8.80;;
56999;SDS011;42891;50.006;21.964;2024-02-26T09:41:12;12.32;;;8.40;;
56999;SDS011;42891;50.006;21.964;2024-02-26T09:45:18;19.55;;;9.55;;
56999;SDS011;42891;50.006;21.964;2024-02-26T09:49:21;14.00;;;9.10;;
56999;SDS011;42891;50.006;21.964;2024-02-26T09:53:24;16.77;;;9.43;;
56999;SDS011;42891;50.006;21.964;2024-02-26T09:57:24;13.48;;;10.07;;
56999;SDS011;42891;50.006;21.964;2024-02-26T10:01:26;11.63;;;7.50;;
56999;SDS011;42891;50.006;21.964;2024-02-26T10:05:27;14.68;;;7.50;;
56999;SDS011;42891;50.006;21.964;2024-02-26T10:09:30;13.73;;;7.05;;
56999;SDS011;42891;50.006;21.964;2024-02-26T10:13:31;16.35;;;7.63;;
56999;SDS011;42891;50.006;21.964;2024-02-26T10:17:32;9.35;;;6.32;;
56999;SDS011;42891;50.006;21.964;2024-02-26T10:21:34;8.95;;;6.28;;
56999;SDS011;42891;50.006;21.964;2024-02-26T10:25:35;12.40;;;6.73;;
56999;SDS011;42891;50.006;21.964;2024-02-26T10:29:35;10.20;;;6.37;;
56999;SDS011;42891;50.006;21.964;2024-02-26T10:33:36;13.87;;;6.87;;
56999;SDS011;42891;50.006;21.964;2024-02-26T10:37:38;12.43;;;6.38;;
56999;SDS011;42891;50.006;21.964;2024-02-26T10:41:40;9.02;;;6.90;;
56999;SDS011;42891;50.006;21.964;2024-02-26T10:45:42;11.07;;;5.75;;
56999;SDS011;42891;50.006;21.964;2024-02-26T10:49:46;8.20;;;5.80;;
56999;SDS011;42891;50.006;21.964;2024-02-26T10:53:48;9.30;;;5.50;;
56999;SDS011;42891;50.006;21.964;2024-02-26T10:57:53;12.30;;;6.13;;
56999;SDS011;42891;50.006;21.964;2024-02-26T11:01:55;11.55;;;6.13;;
56999;SDS011;42891;50.006;21.964;2024-02-26T11:05:56;10.20;;;5.53;;
56999;SDS011;42891;50.006;21.964;2024-02-26T11:09:59;11.27;;;5.65;;
56999;SDS011;42891;50.006;21.964;2024-02-26T11:14:00;12.90;;;5.72;;
56999;SDS011;42891;50.006;21.964;2024-02-26T11:18:01;10.02;;;6.32;;
56999;SDS011;42891;50.006;21.964;2024-02-26T11:22:01;14.32;;;6.45;;
56999;SDS011;42891;50.006;21.964;2024-02-26T11:26:03;8.95;;;4.90;;
56999;SDS011;42891;50.006;21.964;2024-02-26T11:30:05;8.07;;;5.15;;
56999;SDS011;42891;50.006;21.964;2024-02-26T11:34:10;12.32;;;5.28;;
56999;SDS011;42891;50.006;21.964;2024-02-26T11:38:19;8.18;;;4.78;;
56999;SDS011;42891;50.006;21.964;2024-02-26T11:42:24;8.75;;;5.05;;
56999;SDS011;42891;50.006;21.964;2024-02-26T11:50:39;9.80;;;5.93;;
56999;SDS011;42891;50.006;21.964;2024-02-26T11:54:45;8.52;;;5.30;;
56999;SDS011;42891;50.006;21.964;2024-02-26T11:59:36;7.93;;;5.40;;
56999;SDS011;42891;50.006;21.964;2024-02-26T12:03:35;10.48;;;4.05;;
56999;SDS011;42891;50.006;21.964;2024-02-26T12:07:36;6.82;;;4.72;;
56999;SDS011;42891;50.006;21.964;2024-02-26T12:11:40;9.73;;;4.53;;
56999;SDS011;42891;50.006;21.964;2024-02-26T12:19:43;5.97;;;3.97;;
56999;SDS011;42891;50.006;21.964;2024-02-26T12:23:43;8.87;;;4.40;;
56999;SDS011;42891;50.006;21.964;2024-02-26T12:27:44;7.70;;;4.50;;
56999;SDS011;42891;50.006;21.964;2024-02-26T12:31:44;6.97;;;4.55;;
56999;SDS011;42891;50.006;21.964;2024-02-26T12:35:45;9.73;;;4.18;;
56999;SDS011;42891;50.006;21.964;2024-02-26T12:39:48;9.15;;;4.45;;
56999;SDS011;42891;50.006;21.964;2024-02-26T12:43:49;9.73;;;4.32;;
56999;SDS011;42891;50.006;21.964;2024-02-26T12:47:50;9.03;;;4.33;;
56999;SDS011;42891;50.006;21.964;2024-02-26T12:51:50;6.10;;;4.10;;
56999;SDS011;42891;50.006;21.964;2024-02-26T12:55:51;9.48;;;4.00;;
56999;SDS011;42891;50.006;21.964;2024-02-26T12:59:51;9.50;;;4.45;;
56999;SDS011;42891;50.006;21.964;2024-02-26T13:03:52;7.70;;;4.15;;
56999;SDS011;42891;50.006;21.964;2024-02-26T13:07:53;9.60;;;5.43;;
56999;SDS011;42891;50.006;21.964;2024-02-26T13:11:54;15.40;;;7.10;;
56999;SDS011;42891;50.006;21.964;2024-02-26T13:16:04;8.07;;;5.28;;
56999;SDS011;42891;50.006;21.964;2024-02-26T13:20:08;6.57;;;4.40;;
56999;SDS011;42891;50.006;21.964;2024-02-26T13:24:12;8.98;;;5.10;;
56999;SDS011;42891;50.006;21.964;2024-02-26T13:28:16;7.80;;;4.38;;
56999;SDS011;42891;50.006;21.964;2024-02-26T13:32:18;9.73;;;4.57;;
56999;SDS011;42891;50.006;21.964;2024-02-26T13:36:24;7.88;;;4.70;;
56999;SDS011;42891;50.006;21.964;2024-02-26T13:40:25;9.80;;;4.50;;
56999;SDS011;42891;50.006;21.964;2024-02-26T13:44:25;10.00;;;4.57;;
56999;SDS011;42891;50.006;21.964;2024-02-26T13:48:25;10.97;;;5.23;;
56999;SDS011;42891;50.006;21.964;2024-02-26T13:52:26;10.27;;;5.70;;
56999;SDS011;42891;50.006;21.964;2024-02-26T13:56:26;17.00;;;6.78;;
56999;SDS011;42891;50.006;21.964;2024-02-26T14:00:27;13.07;;;5.05;;
56999;SDS011;42891;50.006;21.964;2024-02-26T14:04:29;19.50;;;6.68;;
56999;SDS011;42891;50.006;21.964;2024-02-26T14:08:29;49.00;;;18.92;;
56999;SDS011;42891;50.006;21.964;2024-02-26T14:12:30;29.10;;;13.27;;
56999;SDS011;42891;50.006;21.964;2024-02-26T14:16:30;37.83;;;16.90;;
56999;SDS011;42891;50.006;21.964;2024-02-26T14:20:30;31.43;;;14.70;;
56999;SDS011;42891;50.006;21.964;2024-02-26T14:24:30;60.53;;;25.97;;
56999;SDS011;42891;50.006;21.964;2024-02-26T14:28:31;42.60;;;19.00;;
56999;SDS011;42891;50.006;21.964;2024-02-26T14:32:31;22.02;;;10.43;;
56999;SDS011;42891;50.006;21.964;2024-02-26T14:36:37;21.50;;;9.48;;
56999;SDS011;42891;50.006;21.964;2024-02-26T14:40:38;11.93;;;5.40;;
56999;SDS011;42891;50.006;21.964;2024-02-26T14:44:38;10.75;;;4.20;;
56999;SDS011;42891;50.006;21.964;2024-02-26T14:48:38;7.43;;;4.37;;
56999;SDS011;42891;50.006;21.964;2024-02-26T14:52:39;7.18;;;4.25;;
56999;SDS011;42891;50.006;21.964;2024-02-26T14:56:39;7.88;;;4.70;;
56999;SDS011;42891;50.006;21.964;2024-02-26T15:00:39;6.45;;;4.10;;
56999;SDS011;42891;50.006;21.964;2024-02-26T15:04:40;7.25;;;4.20;;
56999;SDS011;42891;50.006;21.964;2024-02-26T15:08:40;8.07;;;4.87;;
56999;SDS011;42891;50.006;21.964;2024-02-26T15:12:40;6.90;;;4.27;;
56999;SDS011;42891;50.006;21.964;2024-02-26T15:16:41;9.63;;;4.80;;
56999;SDS011;42891;50.006;21.964;2024-02-26T15:20:41;7.77;;;4.43;;
56999;SDS011;42891;50.006;21.964;2024-02-26T15:24:45;7.72;;;4.40;;
56999;SDS011;42891;50.006;21.964;2024-02-26T15:28:47;7.00;;;4.30;;
56999;SDS011;42891;50.006;21.964;2024-02-26T15:32:47;8.07;;;4.85;;
56999;SDS011;42891;50.006;21.964;2024-02-26T15:36:47;12.00;;;5.03;;
56999;SDS011;42891;50.006;21.964;2024-02-26T15:40:48;10.50;;;6.00;;
56999;SDS011;42891;50.006;21.964;2024-02-26T15:44:48;10.57;;;5.53;;
56999;SDS011;42891;50.006;21.964;2024-02-26T15:48:48;13.53;;;6.00;;
56999;SDS011;42891;50.006;21.964;2024-02-26T15:52:49;11.05;;;7.07;;
56999;SDS011;42891;50.006;21.964;2024-02-26T15:56:49;12.07;;;7.77;;
56999;SDS011;42891;50.006;21.964;2024-02-26T16:00:50;16.55;;;7.80;;
56999;SDS011;42891;50.006;21.964;2024-02-26T16:04:50;19.92;;;10.73;;
56999;SDS011;42891;50.006;21.964;2024-02-26T16:08:50;14.90;;;6.20;;
56999;SDS011;42891;50.006;21.964;2024-02-26T16:12:53;15.10;;;6.28;;
56999;SDS011;42891;50.006;21.964;2024-02-26T16:17:00;13.63;;;9.10;;
56999;SDS011;42891;50.006;21.964;2024-02-26T16:21:08;17.92;;;10.40;;
56999;SDS011;42891;50.006;21.964;2024-02-26T16:25:10;13.13;;;8.82;;
56999;SDS011;42891;50.006;21.964;2024-02-26T16:29:10;15.73;;;9.02;;
56999;SDS011;42891;50.006;21.964;2024-02-26T16:33:11;21.23;;;11.53;;
56999;SDS011;42891;50.006;21.964;2024-02-26T16:37:11;22.83;;;13.80;;
56999;SDS011;42891;50.006;21.964;2024-02-26T16:41:12;23.08;;;12.60;;
56999;SDS011;42891;50.006;21.964;2024-02-26T16:45:13;48.13;;;24.70;;
56999;SDS011;42891;50.006;21.964;2024-02-26T16:49:13;52.55;;;25.35;;
56999;SDS011;42891;50.006;21.964;2024-02-26T16:53:13;48.50;;;26.30;;
56999;SDS011;42891;50.006;21.964;2024-02-26T16:57:13;60.23;;;33.67;;
56999;SDS011;42891;50.006;21.964;2024-02-26T17:01:14;39.75;;;22.48;;
56999;SDS011;42891;50.006;21.964;2024-02-26T17:05:14;47.70;;;27.57;;
56999;SDS011;42891;50.006;21.964;2024-02-26T17:09:15;49.50;;;27.27;;
56999;SDS011;42891;50.006;21.964;2024-02-26T17:13:16;50.30;;;26.88;;
56999;SDS011;42891;50.006;21.964;2024-02-26T17:17:17;55.45;;;30.38;;
56999;SDS011;42891;50.006;21.964;2024-02-26T17:21:17;56.85;;;31.33;;
56999;SDS011;42891;50.006;21.964;2024-02-26T17:25:18;50.42;;;27.33;;
56999;SDS011;42891;50.006;21.964;2024-02-26T17:29:19;48.17;;;27.60;;
56999;SDS011;42891;50.006;21.964;2024-02-26T17:33:19;45.57;;;27.10;;
56999;SDS011;42891;50.006;21.964;2024-02-26T17:37:19;53.63;;;31.00;;
56999;SDS011;42891;50.006;21.964;2024-02-26T17:41:20;57.90;;;32.37;;
56999;SDS011;42891;50.006;21.964;2024-02-26T17:45:21;70.40;;;37.38;;
56999;SDS011;42891;50.006;21.964;2024-02-26T17:49:22;75.75;;;38.65;;
56999;SDS011;42891;50.006;21.964;2024-02-26T17:53:24;69.53;;;37.13;;
56999;SDS011;42891;50.006;21.964;2024-02-26T17:57:24;68.40;;;36.15;;
56999;SDS011;42891;50.006;21.964;2024-02-26T18:01:26;74.20;;;38.83;;
56999;SDS011;42891;50.006;21.964;2024-02-26T18:05:26;69.28;;;37.83;;
56999;SDS011;42891;50.006;21.964;2024-02-26T18:09:27;68.38;;;37.33;;
56999;SDS011;42891;50.006;21.964;2024-02-26T18:13:27;66.77;;;35.50;;
56999;SDS011;42891;50.006;21.964;2024-02-26T18:17:27;63.97;;;35.00;;
56999;SDS011;42891;50.006;21.964;2024-02-26T18:21:28;64.45;;;34.90;;
56999;SDS011;42891;50.006;21.964;2024-02-26T18:25:28;67.97;;;34.75;;
56999;SDS011;42891;50.006;21.964;2024-02-26T18:29:29;59.77;;;34.07;;
56999;SDS011;42891;50.006;21.964;2024-02-26T18:33:29;67.10;;;36.43;;
56999;SDS011;42891;50.006;21.964;2024-02-26T18:37:30;62.17;;;35.08;;
56999;SDS011;42891;50.006;21.964;2024-02-26T18:41:30;66.30;;;38.30;;
56999;SDS011;42891;50.006;21.964;2024-02-26T18:45:31;73.57;;;40.03;;
56999;SDS011;42891;50.006;21.964;2024-02-26T18:49:32;75.80;;;41.17;;
56999;SDS011;42891;50.006;21.964;2024-02-26T18:53:35;68.03;;;40.50;;
56999;SDS011;42891;50.006;21.964;2024-02-26T18:57:36;71.65;;;40.28;;
56999;SDS011;42891;50.006;21.964;2024-02-26T19:01:36;75.90;;;43.30;;
56999;SDS011;42891;50.006;21.964;2024-02-26T19:05:37;69.45;;;38.40;;
56999;SDS011;42891;50.006;21.964;2024-02-26T19:09:38;78.18;;;41.22;;
56999;SDS011;42891;50.006;21.964;2024-02-26T19:13:38;74.75;;;41.03;;
56999;SDS011;42891;50.006;21.964;2024-02-26T19:17:39;81.75;;;44.50;;
56999;SDS011;42891;50.006;21.964;2024-02-26T19:21:40;86.30;;;47.47;;
56999;SDS011;42891;50.006;21.964;2024-02-26T19:25:42;71.93;;;42.53;;
56999;SDS011;42891;50.006;21.964;2024-02-26T19:29:42;85.55;;;44.70;;
56999;SDS011;42891;50.006;21.964;2024-02-26T19:33:42;77.83;;;42.80;;
56999;SDS011;42891;50.006;21.964;2024-02-26T19:37:43;66.60;;;38.67;;
56999;SDS011;42891;50.006;21.964;2024-02-26T19:41:43;76.20;;;41.83;;
56999;SDS011;42891;50.006;21.964;2024-02-26T19:45:43;61.85;;;36.13;;
56999;SDS011;42891;50.006;21.964;2024-02-26T19:49:46;64.32;;;34.75;;
56999;SDS011;42891;50.006;21.964;2024-02-26T19:53:48;63.10;;;33.75;;
56999;SDS011;42891;50.006;21.964;2024-02-26T19:57:48;53.75;;;31.42;;
56999;SDS011;42891;50.006;21.964;2024-02-26T20:01:49;54.00;;;32.70;;
56999;SDS011;42891;50.006;21.964;2024-02-26T20:05:50;56.50;;;32.28;;
56999;SDS011;42891;50.006;21.964;2024-02-26T20:09:50;49.05;;;29.25;;
56999;SDS011;42891;50.006;21.964;2024-02-26T20:13:50;51.73;;;32.00;;
56999;SDS011;42891;50.006;21.964;2024-02-26T20:17:51;50.13;;;31.48;;
56999;SDS011;42891;50.006;21.964;2024-02-26T20:21:51;51.30;;;32.95;;
56999;SDS011;42891;50.006;21.964;2024-02-26T20:25:53;47.92;;;28.95;;
56999;SDS011;42891;50.006;21.964;2024-02-26T20:29:55;51.47;;;30.90;;
56999;SDS011;42891;50.006;21.964;2024-02-26T20:33:56;49.92;;;29.08;;
56999;SDS011;42891;50.006;21.964;2024-02-26T20:37:57;57.20;;;32.67;;
56999;SDS011;42891;50.006;21.964;2024-02-26T20:41:57;53.42;;;32.40;;
56999;SDS011;42891;50.006;21.964;2024-02-26T20:45:57;49.90;;;30.67;;
56999;SDS011;42891;50.006;21.964;2024-02-26T20:49:58;46.20;;;29.20;;
56999;SDS011;42891;50.006;21.964;2024-02-26T20:53:58;52.37;;;32.10;;
56999;SDS011;42891;50.006;21.964;2024-02-26T20:57:59;52.25;;;30.02;;
56999;SDS011;42891;50.006;21.964;2024-02-26T21:01:59;49.88;;;31.25;;
56999;SDS011;42891;50.006;21.964;2024-02-26T21:06:00;53.47;;;31.00;;
56999;SDS011;42891;50.006;21.964;2024-02-26T21:10:00;56.63;;;32.90;;
56999;SDS011;42891;50.006;21.964;2024-02-26T21:14:01;62.03;;;35.60;;
56999;SDS011;42891;50.006;21.964;2024-02-26T21:18:01;62.85;;;35.55;;
56999;SDS011;42891;50.006;21.964;2024-02-26T21:22:02;60.83;;;33.80;;
56999;SDS011;42891;50.006;21.964;2024-02-26T21:26:02;61.83;;;35.92;;
56999;SDS011;42891;50.006;21.964;2024-02-26T21:30:03;64.70;;;36.30;;
56999;SDS011;42891;50.006;21.964;2024-02-26T21:34:04;62.65;;;34.00;;
56999;SDS011;42891;50.006;21.964;2024-02-26T21:38:04;64.63;;;34.63;;
56999;SDS011;42891;50.006;21.964;2024-02-26T21:42:05;61.45;;;33.00;;
56999;SDS011;42891;50.006;21.964;2024-02-26T21:46:05;73.25;;;35.08;;
56999;SDS011;42891;50.006;21.964;2024-02-26T21:50:06;57.28;;;32.10;;
56999;SDS011;42891;50.006;21.964;2024-02-26T21:54:07;73.68;;;34.42;;
56999;SDS011;42891;50.006;21.964;2024-02-26T21:58:07;80.87;;;33.70;;
56999;SDS011;42891;50.006;21.964;2024-02-26T22:02:08;68.63;;;32.23;;
56999;SDS011;42891;50.006;21.964;2024-02-26T22:06:08;68.73;;;33.33;;
56999;SDS011;42891;50.006;21.964;2024-02-26T22:10:08;79.80;;;33.30;;
56999;SDS011;42891;50.006;21.964;2024-02-26T22:14:09;60.75;;;32.10;;
56999;SDS011;42891;50.006;21.964;2024-02-26T22:18:10;66.23;;;31.57;;
56999;SDS011;42891;50.006;21.964;2024-02-26T22:22:10;54.78;;;30.33;;
56999;SDS011;42891;50.006;21.964;2024-02-26T22:26:10;58.90;;;30.08;;
56999;SDS011;42891;50.006;21.964;2024-02-26T22:30:11;50.03;;;28.80;;
56999;SDS011;42891;50.006;21.964;2024-02-26T22:34:12;41.17;;;26.30;;
56999;SDS011;42891;50.006;21.964;2024-02-26T22:38:12;50.17;;;26.55;;
56999;SDS011;42891;50.006;21.964;2024-02-26T22:42:12;44.23;;;26.83;;
56999;SDS011;42891;50.006;21.964;2024-02-26T22:46:13;46.35;;;25.88;;
56999;SDS011;42891;50.006;21.964;2024-02-26T22:50:14;40.97;;;25.87;;
56999;SDS011;42891;50.006;21.964;2024-02-26T22:54:14;41.83;;;25.77;;
56999;SDS011;42891;50.006;21.964;2024-02-26T22:58:15;40.80;;;24.10;;
56999;SDS011;42891;50.006;21.964;2024-02-26T23:02:15;42.27;;;25.13;;
56999;SDS011;42891;50.006;21.964;2024-02-26T23:06:15;43.70;;;24.67;;
56999;SDS011;42891;50.006;21.964;2024-02-26T23:10:15;40.60;;;24.92;;
56999;SDS011;42891;50.006;21.964;2024-02-26T23:14:16;42.22;;;23.77;;
56999;SDS011;42891;50.006;21.964;2024-02-26T23:18:16;41.17;;;23.90;;
56999;SDS011;42891;50.006;21.964;2024-02-26T23:22:16;41.72;;;24.85;;
56999;SDS011;42891;50.006;21.964;2024-02-26T23:26:17;39.70;;;23.90;;
56999;SDS011;42891;50.006;21.964;2024-02-26T23:30:17;42.67;;;23.23;;
56999;SDS011;42891;50.006;21.964;2024-02-26T23:34:18;42.03;;;23.77;;